sensor_id;sensor_type;location;lat;lon;timestamp;pressure;altitude;pressure_sealevel;temperature;humidity
74090;BME280;62448;-26.094;27.994;2022-08-02T00:02:10;85683.84;;;12.81;17.93
74090;BME280;62448;-26.094;27.994;2022-08-02T00:04:35;85680.17;;;12.33;18.13
74090;BME280;62448;-26.094;27.994;2022-08-02T00:07:01;85676.38;;;12.71;18.03
74090;BME280;62448;-26.094;27.994;2022-08-02T00:09:26;85675.09;;;12.29;18.06
74090;BME280;62448;-26.094;27.994;2022-08-02T00:11:52;85669.65;;;12.98;17.63
74090;BME280;62448;-26.094;27.994;2022-08-02T00:14:17;85664.20;;;13.35;17.44
74090;BME280;62448;-26.094;27.994;2022-08-02T00:16:42;85665.89;;;12.86;17.39
74090;BME280;62448;-26.094;27.994;2022-08-02T00:19:07;85665.88;;;13.41;17.24
74090;BME280;62448;-26.094;27.994;2022-08-02T00:21:33;85661.47;;;13.33;17.29
74090;BME280;62448;-26.094;27.994;2022-08-02T00:23:58;85659.87;;;13.40;17.24
74090;BME280;62448;-26.094;27.994;2022-08-02T00:26:25;85656.70;;;13.33;17.23
74090;BME280;62448;-26.094;27.994;2022-08-02T00:28:50;85654.02;;;12.83;17.18
74090;BME280;62448;-26.094;27.994;2022-08-02T00:31:15;85647.24;;;13.23;17.32
74090;BME280;62448;-26.094;27.994;2022-08-02T00:33:41;85646.87;;;13.38;17.16
74090;BME280;62448;-26.094;27.994;2022-08-02T00:36:07;85644.85;;;13.47;17.21
74090;BME280;62448;-26.094;27.994;2022-08-02T00:38:32;85644.96;;;13.49;17.10
74090;BME280;62448;-26.094;27.994;2022-08-02T00:40:57;85643.77;;;13.15;17.30
74090;BME280;62448;-26.094;27.994;2022-08-02T00:43:24;85642.25;;;13.07;17.27
74090;BME280;62448;-26.094;27.994;2022-08-02T00:45:48;85642.64;;;13.41;17.21
74090;BME280;62448;-26.094;27.994;2022-08-02T00:48:14;85639.91;;;13.06;17.21
74090;BME280;62448;-26.094;27.994;2022-08-02T00:50:40;85639.43;;;13.68;17.20
74090;BME280;62448;-26.094;27.994;2022-08-02T00:53:05;85639.35;;;13.46;17.23
74090;BME280;62448;-26.094;27.994;2022-08-02T00:55:30;85639.97;;;13.09;17.33
74090;BME280;62448;-26.094;27.994;2022-08-02T00:57:55;85638.45;;;13.29;17.30
74090;BME280;62448;-26.094;27.994;2022-08-02T01:00:20;85636.10;;;13.30;17.22
74090;BME280;62448;-26.094;27.994;2022-08-02T01:02:47;85634.98;;;13.77;17.26
74090;BME280;62448;-26.094;27.994;2022-08-02T01:05:12;85641.12;;;13.52;17.23
74090;BME280;62448;-26.094;27.994;2022-08-02T01:07:37;85642.95;;;13.29;17.34
74090;BME280;62448;-26.094;27.994;2022-08-02T01:10:04;85639.62;;;12.96;17.35
74090;BME280;62448;-26.094;27.994;2022-08-02T01:12:28;85642.72;;;13.79;17.21
74090;BME280;62448;-26.094;27.994;2022-08-02T01:15:00;85644.73;;;13.36;17.36
74090;BME280;62448;-26.094;27.994;2022-08-02T01:17:25;85644.33;;;13.33;17.35
74090;BME280;62448;-26.094;27.994;2022-08-02T01:19:50;85643.60;;;13.61;17.29
74090;BME280;62448;-26.094;27.994;2022-08-02T01:22:20;85640.69;;;13.45;17.31
74090;BME280;62448;-26.094;27.994;2022-08-02T01:24:59;85634.20;;;13.48;17.29
74090;BME280;62448;-26.094;27.994;2022-08-02T01:27:09;85628.98;;;13.12;17.46
74090;BME280;62448;-26.094;27.994;2022-08-02T01:29:29;85626.90;;;12.91;17.39
74090;BME280;62448;-26.094;27.994;2022-08-02T01:31:56;85625.82;;;13.30;17.38
74090;BME280;62448;-26.094;27.994;2022-08-02T01:34:21;85617.08;;;13.71;17.37
74090;BME280;62448;-26.094;27.994;2022-08-02T01:36:45;85606.80;;;13.03;17.51
74090;BME280;62448;-26.094;27.994;2022-08-02T01:39:11;85607.77;;;12.98;17.37
74090;BME280;62448;-26.094;27.994;2022-08-02T01:41:34;85605.66;;;12.99;17.44
74090;BME280;62448;-26.094;27.994;2022-08-02T01:43:59;85609.89;;;13.55;17.37
74090;BME280;62448;-26.094;27.994;2022-08-02T01:46:24;85606.90;;;13.59;17.34
74090;BME280;62448;-26.094;27.994;2022-08-02T01:48:50;85603.42;;;13.11;17.53
74090;BME280;62448;-26.094;27.994;2022-08-02T01:51:16;85602.67;;;13.58;17.38
74090;BME280;62448;-26.094;27.994;2022-08-02T01:53:42;85609.06;;;12.86;17.97
74090;BME280;62448;-26.094;27.994;2022-08-02T01:56:07;85601.22;;;12.68;18.15
74090;BME280;62448;-26.094;27.994;2022-08-02T01:58:35;85600.51;;;12.59;18.36
74090;BME280;62448;-26.094;27.994;2022-08-02T02:00:58;85611.42;;;12.35;18.49
74090;BME280;62448;-26.094;27.994;2022-08-02T02:03:24;85608.69;;;12.88;18.52
74090;BME280;62448;-26.094;27.994;2022-08-02T02:05:48;85608.43;;;12.64;18.55
74090;BME280;62448;-26.094;27.994;2022-08-02T02:08:14;85606.31;;;12.35;18.79
74090;BME280;62448;-26.094;27.994;2022-08-02T02:10:39;85607.25;;;12.06;18.41
74090;BME280;62448;-26.094;27.994;2022-08-02T02:13:05;85604.91;;;12.69;17.93
74090;BME280;62448;-26.094;27.994;2022-08-02T02:15:30;85605.04;;;12.93;17.84
74090;BME280;62448;-26.094;27.994;2022-08-02T02:17:55;85603.57;;;13.00;17.72
74090;BME280;62448;-26.094;27.994;2022-08-02T02:20:20;85600.80;;;12.83;17.79
74090;BME280;62448;-26.094;27.994;2022-08-02T02:22:46;85600.18;;;13.38;17.57
74090;BME280;62448;-26.094;27.994;2022-08-02T02:25:11;85601.44;;;12.93;17.58
74090;BME280;62448;-26.094;27.994;2022-08-02T02:27:38;85600.97;;;13.05;17.63
74090;BME280;62448;-26.094;27.994;2022-08-02T02:30:03;85600.88;;;13.26;17.61
74090;BME280;62448;-26.094;27.994;2022-08-02T02:32:27;85605.98;;;13.33;17.53
74090;BME280;62448;-26.094;27.994;2022-08-02T02:34:52;85604.38;;;13.21;17.53
74090;BME280;62448;-26.094;27.994;2022-08-02T02:37:20;85601.30;;;13.44;17.46
74090;BME280;62448;-26.094;27.994;2022-08-02T02:39:44;85603.55;;;13.16;17.49
74090;BME280;62448;-26.094;27.994;2022-08-02T02:42:10;85601.13;;;13.25;17.56
74090;BME280;62448;-26.094;27.994;2022-08-02T02:44:35;85604.81;;;13.27;17.55
74090;BME280;62448;-26.094;27.994;2022-08-02T02:46:59;85604.11;;;13.46;17.51
74090;BME280;62448;-26.094;27.994;2022-08-02T02:49:25;85605.25;;;12.70;17.74
74090;BME280;62448;-26.094;27.994;2022-08-02T02:51:50;85605.64;;;13.20;17.84
74090;BME280;62448;-26.094;27.994;2022-08-02T02:54:15;85601.34;;;12.28;18.24
74090;BME280;62448;-26.094;27.994;2022-08-02T02:56:41;85601.02;;;12.43;18.42
74090;BME280;62448;-26.094;27.994;2022-08-02T02:59:07;85603.18;;;12.38;18.69
74090;BME280;62448;-26.094;27.994;2022-08-02T03:01:31;85598.40;;;12.13;18.80
74090;BME280;62448;-26.094;27.994;2022-08-02T03:04:01;85594.34;;;11.95;18.77
74090;BME280;62448;-26.094;27.994;2022-08-02T03:06:23;85593.77;;;11.83;18.96
74090;BME280;62448;-26.094;27.994;2022-08-02T03:08:48;85586.36;;;12.22;18.77
74090;BME280;62448;-26.094;27.994;2022-08-02T03:11:13;85584.34;;;12.37;18.46
74090;BME280;62448;-26.094;27.994;2022-08-02T03:13:39;85580.83;;;12.51;18.13
74090;BME280;62448;-26.094;27.994;2022-08-02T03:16:04;85578.71;;;12.49;18.06
74090;BME280;62448;-26.094;27.994;2022-08-02T03:18:31;85572.09;;;12.75;17.86
74090;BME280;62448;-26.094;27.994;2022-08-02T03:20:59;85575.54;;;13.03;17.68
74090;BME280;62448;-26.094;27.994;2022-08-02T03:23:19;85576.02;;;12.83;17.78
74090;BME280;62448;-26.094;27.994;2022-08-02T03:25:45;85578.92;;;12.64;17.87
74090;BME280;62448;-26.094;27.994;2022-08-02T03:28:11;85582.99;;;13.02;17.76
74090;BME280;62448;-26.094;27.994;2022-08-02T03:30:36;85579.91;;;12.69;17.70
74090;BME280;62448;-26.094;27.994;2022-08-02T03:33:01;85584.19;;;13.13;17.62
74090;BME280;62448;-26.094;27.994;2022-08-02T03:35:26;85580.31;;;12.90;17.73
74090;BME280;62448;-26.094;27.994;2022-08-02T03:37:53;85582.66;;;13.03;17.49
74090;BME280;62448;-26.094;27.994;2022-08-02T03:40:18;85580.99;;;12.57;17.61
74090;BME280;62448;-26.094;27.994;2022-08-02T03:42:43;85576.93;;;12.84;17.66
74090;BME280;62448;-26.094;27.994;2022-08-02T03:45:11;85572.94;;;13.08;17.53
74090;BME280;62448;-26.094;27.994;2022-08-02T03:47:34;85568.91;;;13.09;17.48
74090;BME280;62448;-26.094;27.994;2022-08-02T03:49:59;85564.05;;;13.11;17.76
74090;BME280;62448;-26.094;27.994;2022-08-02T03:52:26;85564.48;;;12.80;18.12
74090;BME280;62448;-26.094;27.994;2022-08-02T03:54:50;85564.10;;;12.37;18.42
74090;BME280;62448;-26.094;27.994;2022-08-02T03:57:16;85566.28;;;12.26;18.57
74090;BME280;62448;-26.094;27.994;2022-08-02T03:59:42;85569.57;;;11.87;18.76
74090;BME280;62448;-26.094;27.994;2022-08-02T04:02:07;85570.20;;;11.22;19.49
74090;BME280;62448;-26.094;27.994;2022-08-02T04:04:31;85565.50;;;11.43;19.99
74090;BME280;62448;-26.094;27.994;2022-08-02T04:06:57;85562.42;;;11.78;19.79
74090;BME280;62448;-26.094;27.994;2022-08-02T04:09:23;85565.20;;;11.24;20.44
74090;BME280;62448;-26.094;27.994;2022-08-02T04:11:48;85562.36;;;11.07;20.23
74090;BME280;62448;-26.094;27.994;2022-08-02T04:14:15;85558.81;;;11.42;20.19
74090;BME280;62448;-26.094;27.994;2022-08-02T04:16:41;85562.05;;;11.88;20.02
74090;BME280;62448;-26.094;27.994;2022-08-02T04:19:07;85562.87;;;11.78;20.36
74090;BME280;62448;-26.094;27.994;2022-08-02T04:21:33;85559.20;;;11.75;20.48
74090;BME280;62448;-26.094;27.994;2022-08-02T04:23:56;85557.81;;;11.51;20.68
74090;BME280;62448;-26.094;27.994;2022-08-02T04:26:21;85549.23;;;12.23;20.41
74090;BME280;62448;-26.094;27.994;2022-08-02T04:28:47;85549.91;;;12.42;20.19
74090;BME280;62448;-26.094;27.994;2022-08-02T04:31:12;85554.24;;;12.00;20.42
74090;BME280;62448;-26.094;27.994;2022-08-02T04:33:38;85555.58;;;12.58;19.93
74090;BME280;62448;-26.094;27.994;2022-08-02T04:36:05;85559.60;;;12.73;19.68
74090;BME280;62448;-26.094;27.994;2022-08-02T04:38:29;85560.29;;;12.43;19.84
74090;BME280;62448;-26.094;27.994;2022-08-02T04:40:55;85567.28;;;12.94;19.35
74090;BME280;62448;-26.094;27.994;2022-08-02T04:43:20;85569.60;;;13.38;19.07
74090;BME280;62448;-26.094;27.994;2022-08-02T04:45:47;85561.71;;;12.99;19.15
74090;BME280;62448;-26.094;27.994;2022-08-02T04:48:11;85564.57;;;12.74;19.48
74090;BME280;62448;-26.094;27.994;2022-08-02T04:50:36;85565.15;;;12.47;19.83
74090;BME280;62448;-26.094;27.994;2022-08-02T04:53:01;85571.61;;;12.43;19.88
74090;BME280;62448;-26.094;27.994;2022-08-02T04:55:26;85571.66;;;12.13;19.97
74090;BME280;62448;-26.094;27.994;2022-08-02T04:57:52;85581.39;;;12.44;19.84
74090;BME280;62448;-26.094;27.994;2022-08-02T05:00:17;85581.93;;;12.24;19.89
74090;BME280;62448;-26.094;27.994;2022-08-02T05:02:43;85581.37;;;12.15;19.83
74090;BME280;62448;-26.094;27.994;2022-08-02T05:05:08;85586.11;;;12.02;19.97
74090;BME280;62448;-26.094;27.994;2022-08-02T05:07:33;85587.04;;;11.96;19.85
74090;BME280;62448;-26.094;27.994;2022-08-02T05:10:12;85589.39;;;11.97;19.71
74090;BME280;62448;-26.094;27.994;2022-08-02T05:12:37;85595.56;;;12.18;19.28
74090;BME280;62448;-26.094;27.994;2022-08-02T05:15:03;85597.79;;;12.18;19.03
74090;BME280;62448;-26.094;27.994;2022-08-02T05:17:28;85600.87;;;12.36;18.88
74090;BME280;62448;-26.094;27.994;2022-08-02T05:19:54;85601.46;;;12.15;18.94
74090;BME280;62448;-26.094;27.994;2022-08-02T05:22:19;85600.92;;;12.31;18.69
74090;BME280;62448;-26.094;27.994;2022-08-02T05:24:45;85602.36;;;12.71;18.42
74090;BME280;62448;-26.094;27.994;2022-08-02T05:27:11;85596.78;;;12.96;18.24
74090;BME280;62448;-26.094;27.994;2022-08-02T05:29:36;85603.65;;;12.49;18.45
74090;BME280;62448;-26.094;27.994;2022-08-02T05:32:02;85605.51;;;12.98;18.16
74090;BME280;62448;-26.094;27.994;2022-08-02T05:34:27;85603.27;;;12.79;18.26
74090;BME280;62448;-26.094;27.994;2022-08-02T05:36:53;85609.19;;;12.80;18.31
74090;BME280;62448;-26.094;27.994;2022-08-02T05:39:19;85604.62;;;12.01;18.74
74090;BME280;62448;-26.094;27.994;2022-08-02T05:41:44;85603.57;;;11.78;18.93
74090;BME280;62448;-26.094;27.994;2022-08-02T05:44:10;85598.69;;;11.81;18.95
74090;BME280;62448;-26.094;27.994;2022-08-02T05:46:35;85598.86;;;11.86;19.49
74090;BME280;62448;-26.094;27.994;2022-08-02T05:49:01;85596.86;;;11.83;19.77
74090;BME280;62448;-26.094;27.994;2022-08-02T05:51:31;85594.65;;;11.31;20.13
74090;BME280;62448;-26.094;27.994;2022-08-02T05:54:00;85599.67;;;11.16;20.10
74090;BME280;62448;-26.094;27.994;2022-08-02T05:56:24;85599.84;;;11.63;19.90
74090;BME280;62448;-26.094;27.994;2022-08-02T05:58:49;85598.69;;;11.48;20.20
74090;BME280;62448;-26.094;27.994;2022-08-02T06:01:11;85605.97;;;11.37;20.37
74090;BME280;62448;-26.094;27.994;2022-08-02T06:03:41;85600.30;;;11.35;20.41
74090;BME280;62448;-26.094;27.994;2022-08-02T06:06:04;85607.79;;;10.91;20.57
74090;BME280;62448;-26.094;27.994;2022-08-02T06:08:30;85609.06;;;11.36;20.39
74090;BME280;62448;-26.094;27.994;2022-08-02T06:10:52;85606.42;;;10.61;20.58
74090;BME280;62448;-26.094;27.994;2022-08-02T06:13:15;85600.33;;;11.51;19.93
74090;BME280;62448;-26.094;27.994;2022-08-02T06:15:41;85600.00;;;11.57;19.65
74090;BME280;62448;-26.094;27.994;2022-08-02T06:18:08;85605.96;;;12.00;19.47
74090;BME280;62448;-26.094;27.994;2022-08-02T06:20:33;85610.60;;;11.78;19.65
74090;BME280;62448;-26.094;27.994;2022-08-02T06:22:58;85614.33;;;11.92;19.52
74090;BME280;62448;-26.094;27.994;2022-08-02T06:25:24;85610.42;;;12.32;19.33
74090;BME280;62448;-26.094;27.994;2022-08-02T06:27:49;85607.76;;;11.79;19.74
74090;BME280;62448;-26.094;27.994;2022-08-02T06:30:15;85606.83;;;11.53;19.87
74090;BME280;62448;-26.094;27.994;2022-08-02T06:32:40;85603.26;;;11.73;19.84
74090;BME280;62448;-26.094;27.994;2022-08-02T06:35:06;85600.64;;;11.94;19.69
74090;BME280;62448;-26.094;27.994;2022-08-02T06:37:36;85605.81;;;11.79;19.81
74090;BME280;62448;-26.094;27.994;2022-08-02T06:40:00;85610.00;;;11.73;19.85
74090;BME280;62448;-26.094;27.994;2022-08-02T06:42:28;85610.83;;;11.83;19.82
74090;BME280;62448;-26.094;27.994;2022-08-02T06:44:46;85614.56;;;11.37;20.11
74090;BME280;62448;-26.094;27.994;2022-08-02T06:47:12;85618.22;;;11.92;20.31
74090;BME280;62448;-26.094;27.994;2022-08-02T06:49:37;85614.95;;;11.64;20.60
74090;BME280;62448;-26.094;27.994;2022-08-02T06:52:03;85621.07;;;11.21;20.81
74090;BME280;62448;-26.094;27.994;2022-08-02T06:54:28;85631.02;;;11.19;20.97
74090;BME280;62448;-26.094;27.994;2022-08-02T06:56:53;85635.95;;;11.45;20.77
74090;BME280;62448;-26.094;27.994;2022-08-02T06:59:18;85638.20;;;11.18;20.95
74090;BME280;62448;-26.094;27.994;2022-08-02T07:01:44;85649.06;;;10.98;21.09
74090;BME280;62448;-26.094;27.994;2022-08-02T07:04:10;85649.61;;;10.98;21.05
74090;BME280;62448;-26.094;27.994;2022-08-02T07:06:35;85646.79;;;11.05;21.19
74090;BME280;62448;-26.094;27.994;2022-08-02T07:09:00;85652.53;;;10.76;21.43
74090;BME280;62448;-26.094;27.994;2022-08-02T07:11:26;85658.75;;;10.07;21.29
74090;BME280;62448;-26.094;27.994;2022-08-02T07:13:52;85652.51;;;10.95;20.76
74090;BME280;62448;-26.094;27.994;2022-08-02T07:16:18;85653.20;;;11.78;20.31
74090;BME280;62448;-26.094;27.994;2022-08-02T07:18:43;85661.68;;;11.84;20.11
74090;BME280;62448;-26.094;27.994;2022-08-02T07:21:08;85656.84;;;11.81;20.02
74090;BME280;62448;-26.094;27.994;2022-08-02T07:23:33;85653.46;;;12.03;19.75
74090;BME280;62448;-26.094;27.994;2022-08-02T07:25:59;85656.56;;;11.50;19.88
74090;BME280;62448;-26.094;27.994;2022-08-02T07:28:24;85658.53;;;11.75;19.72
74090;BME280;62448;-26.094;27.994;2022-08-02T07:30:51;85661.22;;;11.87;19.53
74090;BME280;62448;-26.094;27.994;2022-08-02T07:33:15;85652.98;;;11.99;19.39
74090;BME280;62448;-26.094;27.994;2022-08-02T07:35:41;85653.70;;;11.51;19.60
74090;BME280;62448;-26.094;27.994;2022-08-02T07:38:07;85656.57;;;12.14;19.22
74090;BME280;62448;-26.094;27.994;2022-08-02T07:40:32;85655.06;;;11.64;19.39
74090;BME280;62448;-26.094;27.994;2022-08-02T07:42:59;85658.84;;;12.24;19.18
74090;BME280;62448;-26.094;27.994;2022-08-02T07:45:25;85654.03;;;11.65;19.67
74090;BME280;62448;-26.094;27.994;2022-08-02T07:47:50;85659.51;;;11.37;20.10
74090;BME280;62448;-26.094;27.994;2022-08-02T07:50:16;85665.12;;;11.35;20.05
74090;BME280;62448;-26.094;27.994;2022-08-02T07:52:40;85664.92;;;10.87;20.25
74090;BME280;62448;-26.094;27.994;2022-08-02T07:55:06;85659.21;;;11.21;20.06
74090;BME280;62448;-26.094;27.994;2022-08-02T07:57:30;85655.88;;;11.88;19.72
74090;BME280;62448;-26.094;27.994;2022-08-02T07:59:56;85653.60;;;11.57;19.76
74090;BME280;62448;-26.094;27.994;2022-08-02T08:02:21;85656.42;;;11.43;19.97
74090;BME280;62448;-26.094;27.994;2022-08-02T08:04:46;85654.31;;;10.90;20.23
74090;BME280;62448;-26.094;27.994;2022-08-02T08:07:12;85658.63;;;11.05;20.10
74090;BME280;62448;-26.094;27.994;2022-08-02T08:09:38;85654.84;;;11.52;19.78
74090;BME280;62448;-26.094;27.994;2022-08-02T08:12:03;85651.60;;;11.38;19.46
74090;BME280;62448;-26.094;27.994;2022-08-02T08:14:29;85643.93;;;11.24;19.22
74090;BME280;62448;-26.094;27.994;2022-08-02T08:16:54;85645.57;;;12.01;18.71
74090;BME280;62448;-26.094;27.994;2022-08-02T08:19:20;85642.83;;;12.08;18.56
74090;BME280;62448;-26.094;27.994;2022-08-02T08:21:45;85638.64;;;11.72;18.73
74090;BME280;62448;-26.094;27.994;2022-08-02T08:24:11;85635.16;;;11.56;18.80
74090;BME280;62448;-26.094;27.994;2022-08-02T08:26:36;85629.25;;;11.96;18.56
74090;BME280;62448;-26.094;27.994;2022-08-02T08:29:02;85622.79;;;11.71;18.64
74090;BME280;62448;-26.094;27.994;2022-08-02T08:31:27;85613.94;;;10.90;18.56
74090;BME280;62448;-26.094;27.994;2022-08-02T08:33:53;85611.94;;;12.16;18.25
74090;BME280;62448;-26.094;27.994;2022-08-02T08:36:18;85605.57;;;11.94;18.40
74090;BME280;62448;-26.094;27.994;2022-08-02T08:38:43;85606.94;;;11.77;18.50
74090;BME280;62448;-26.094;27.994;2022-08-02T08:41:08;85605.36;;;11.96;18.31
74090;BME280;62448;-26.094;27.994;2022-08-02T08:43:34;85602.56;;;12.12;18.54
74090;BME280;62448;-26.094;27.994;2022-08-02T08:46:00;85602.57;;;11.71;18.91
74090;BME280;62448;-26.094;27.994;2022-08-02T08:48:26;85599.07;;;11.56;19.16
74090;BME280;62448;-26.094;27.994;2022-08-02T08:50:54;85600.29;;;11.08;19.39
74090;BME280;62448;-26.094;27.994;2022-08-02T08:53:17;85595.61;;;11.39;19.32
74090;BME280;62448;-26.094;27.994;2022-08-02T08:55:42;85594.27;;;10.91;19.55
74090;BME280;62448;-26.094;27.994;2022-08-02T08:58:07;85592.21;;;10.94;19.71
74090;BME280;62448;-26.094;27.994;2022-08-02T09:00:34;85584.25;;;11.17;19.58
74090;BME280;62448;-26.094;27.994;2022-08-02T09:02:58;85593.85;;;10.59;19.83
74090;BME280;62448;-26.094;27.994;2022-08-02T09:05:23;85593.44;;;10.70;19.86
74090;BME280;62448;-26.094;27.994;2022-08-02T09:07:49;85588.89;;;10.82;19.73
74090;BME280;62448;-26.094;27.994;2022-08-02T09:10:47;85577.15;;;10.57;19.73
74090;BME280;62448;-26.094;27.994;2022-08-02T09:12:38;85580.81;;;10.37;19.63
74090;BME280;62448;-26.094;27.994;2022-08-02T09:15:04;85576.71;;;10.89;19.02
74090;BME280;62448;-26.094;27.994;2022-08-02T09:17:28;85563.77;;;11.11;18.76
74090;BME280;62448;-26.094;27.994;2022-08-02T09:20:06;85556.32;;;10.89;18.83
74090;BME280;62448;-26.094;27.994;2022-08-02T09:22:19;85558.74;;;11.43;18.61
74090;BME280;62448;-26.094;27.994;2022-08-02T09:24:47;85558.49;;;11.58;18.46
74090;BME280;62448;-26.094;27.994;2022-08-02T09:27:13;85557.39;;;11.89;18.28
74090;BME280;62448;-26.094;27.994;2022-08-02T09:29:36;85555.90;;;11.45;18.44
74090;BME280;62448;-26.094;27.994;2022-08-02T09:32:02;85553.13;;;11.49;18.42
74090;BME280;62448;-26.094;27.994;2022-08-02T09:34:43;85554.83;;;11.72;18.27
74090;BME280;62448;-26.094;27.994;2022-08-02T09:36:53;85556.01;;;11.98;18.15
74090;BME280;62448;-26.094;27.994;2022-08-02T09:39:18;85552.50;;;11.86;18.28
74090;BME280;62448;-26.094;27.994;2022-08-02T09:41:44;85541.66;;;11.35;18.59
74090;BME280;62448;-26.094;27.994;2022-08-02T09:44:10;85536.43;;;11.04;18.87
74090;BME280;62448;-26.094;27.994;2022-08-02T09:46:37;85532.73;;;10.93;19.12
74090;BME280;62448;-26.094;27.994;2022-08-02T09:49:01;85526.66;;;10.88;19.08
74090;BME280;62448;-26.094;27.994;2022-08-02T09:51:27;85528.56;;;11.10;19.33
74090;BME280;62448;-26.094;27.994;2022-08-02T09:53:53;85529.74;;;10.94;19.44
74090;BME280;62448;-26.094;27.994;2022-08-02T09:56:17;85528.36;;;11.04;19.59
74090;BME280;62448;-26.094;27.994;2022-08-02T09:58:41;85527.51;;;10.68;19.76
74090;BME280;62448;-26.094;27.994;2022-08-02T10:01:06;85527.85;;;10.63;19.85
74090;BME280;62448;-26.094;27.994;2022-08-02T10:03:33;85524.13;;;11.35;19.82
74090;BME280;62448;-26.094;27.994;2022-08-02T10:05:57;85526.39;;;11.04;20.00
74090;BME280;62448;-26.094;27.994;2022-08-02T10:08:24;85524.20;;;11.18;20.05
74090;BME280;62448;-26.094;27.994;2022-08-02T10:10:48;85513.11;;;11.18;20.07
74090;BME280;62448;-26.094;27.994;2022-08-02T10:13:15;85508.96;;;10.87;19.77
74090;BME280;62448;-26.094;27.994;2022-08-02T10:15:40;85504.75;;;11.27;19.36
74090;BME280;62448;-26.094;27.994;2022-08-02T10:18:07;85496.85;;;11.63;19.14
74090;BME280;62448;-26.094;27.994;2022-08-02T10:20:35;85493.31;;;11.86;19.01
74090;BME280;62448;-26.094;27.994;2022-08-02T10:22:57;85484.58;;;11.28;19.08
74090;BME280;62448;-26.094;27.994;2022-08-02T10:25:22;85474.67;;;12.00;18.82
74090;BME280;62448;-26.094;27.994;2022-08-02T10:27:49;85472.51;;;11.76;18.89
74090;BME280;62448;-26.094;27.994;2022-08-02T10:30:13;85472.47;;;11.84;18.91
74090;BME280;62448;-26.094;27.994;2022-08-02T10:32:42;85471.12;;;11.67;18.94
74090;BME280;62448;-26.094;27.994;2022-08-02T10:35:06;85470.65;;;12.21;18.73
74090;BME280;62448;-26.094;27.994;2022-08-02T10:37:32;85463.37;;;11.67;18.89
74090;BME280;62448;-26.094;27.994;2022-08-02T10:39:56;85462.76;;;12.01;19.29
74090;BME280;62448;-26.094;27.994;2022-08-02T10:42:44;85452.79;;;11.60;19.44
74090;BME280;62448;-26.094;27.994;2022-08-02T10:44:46;85451.71;;;11.47;19.69
74090;BME280;62448;-26.094;27.994;2022-08-02T10:47:22;85446.44;;;11.69;19.69
74090;BME280;62448;-26.094;27.994;2022-08-02T10:49:48;85440.57;;;11.83;19.80
74090;BME280;62448;-26.094;27.994;2022-08-02T10:52:06;85437.76;;;11.58;19.91
74090;BME280;62448;-26.094;27.994;2022-08-02T10:54:32;85431.54;;;11.44;20.06
74090;BME280;62448;-26.094;27.994;2022-08-02T10:56:55;85433.57;;;11.39;19.91
74090;BME280;62448;-26.094;27.994;2022-08-02T10:59:28;85426.06;;;11.69;19.74
74090;BME280;62448;-26.094;27.994;2022-08-02T11:01:45;85422.65;;;11.57;19.74
74090;BME280;62448;-26.094;27.994;2022-08-02T11:04:09;85421.96;;;11.18;19.79
74090;BME280;62448;-26.094;27.994;2022-08-02T11:07:07;85412.11;;;11.38;19.77
74090;BME280;62448;-26.094;27.994;2022-08-02T11:09:46;85409.22;;;11.08;19.65
74090;BME280;62448;-26.094;27.994;2022-08-02T11:11:25;85406.85;;;11.56;19.56
74090;BME280;62448;-26.094;27.994;2022-08-02T11:14:07;85404.15;;;11.52;19.25
74090;BME280;62448;-26.094;27.994;2022-08-02T11:16:16;85405.31;;;11.46;18.78
74090;BME280;62448;-26.094;27.994;2022-08-02T11:19:03;85404.81;;;11.80;18.61
74090;BME280;62448;-26.094;27.994;2022-08-02T11:21:28;85405.00;;;12.20;18.45
74090;BME280;62448;-26.094;27.994;2022-08-02T11:23:35;85401.23;;;11.87;18.40
74090;BME280;62448;-26.094;27.994;2022-08-02T11:25:58;85401.51;;;11.77;18.26
74090;BME280;62448;-26.094;27.994;2022-08-02T11:28:24;85393.28;;;12.21;18.20
74090;BME280;62448;-26.094;27.994;2022-08-02T11:30:56;85389.68;;;11.96;18.22
74090;BME280;62448;-26.094;27.994;2022-08-02T11:33:14;85384.77;;;11.68;18.29
74090;BME280;62448;-26.094;27.994;2022-08-02T11:35:39;85384.84;;;11.95;18.09
74090;BME280;62448;-26.094;27.994;2022-08-02T11:38:21;85382.16;;;12.56;18.19
74090;BME280;62448;-26.094;27.994;2022-08-02T11:40:36;85382.91;;;12.01;18.62
74090;BME280;62448;-26.094;27.994;2022-08-02T11:42:55;85376.15;;;11.71;18.73
74090;BME280;62448;-26.094;27.994;2022-08-02T11:45:25;85377.16;;;11.71;18.88
74090;BME280;62448;-26.094;27.994;2022-08-02T11:47:47;85374.80;;;11.30;18.93
74090;BME280;62448;-26.094;27.994;2022-08-02T11:50:12;85363.43;;;11.54;18.90
74090;BME280;62448;-26.094;27.994;2022-08-02T11:52:37;85351.19;;;11.45;19.04
74090;BME280;62448;-26.094;27.994;2022-08-02T11:55:03;85352.18;;;11.33;18.97
74090;BME280;62448;-26.094;27.994;2022-08-02T11:57:28;85348.91;;;11.06;19.09
74090;BME280;62448;-26.094;27.994;2022-08-02T11:59:54;85345.96;;;11.18;18.98
74090;BME280;62448;-26.094;27.994;2022-08-02T12:02:20;85340.17;;;11.38;18.88
74090;BME280;62448;-26.094;27.994;2022-08-02T12:04:52;85340.59;;;11.37;18.81
74090;BME280;62448;-26.094;27.994;2022-08-02T12:07:09;85340.95;;;11.32;18.91
74090;BME280;62448;-26.094;27.994;2022-08-02T12:09:35;85338.09;;;11.60;18.87
74090;BME280;62448;-26.094;27.994;2022-08-02T12:12:21;85337.23;;;11.51;18.87
74090;BME280;62448;-26.094;27.994;2022-08-02T12:14:46;85339.81;;;11.86;18.37
74090;BME280;62448;-26.094;27.994;2022-08-02T12:17:11;85336.94;;;11.94;18.12
74090;BME280;62448;-26.094;27.994;2022-08-02T12:19:38;85334.57;;;11.97;18.03
74090;BME280;62448;-26.094;27.994;2022-08-02T12:22:13;85331.55;;;11.81;17.89
74090;BME280;62448;-26.094;27.994;2022-08-02T12:24:28;85328.16;;;12.39;17.55
74090;BME280;62448;-26.094;27.994;2022-08-02T12:26:52;85323.66;;;12.37;17.60
74090;BME280;62448;-26.094;27.994;2022-08-02T12:29:28;85322.46;;;11.98;17.63
74090;BME280;62448;-26.094;27.994;2022-08-02T12:31:45;85317.56;;;11.99;17.66